createdAt,value
2017-09-10T00:00:02.073Z,99716.00
2017-09-10T00:05:04.037Z,99716.77
2017-09-10T00:10:06.044Z,99720.86
2017-09-10T00:15:07.998Z,99722.81
2017-09-10T00:20:10.137Z,99732.59
2017-09-10T00:25:12.065Z,99726.47
2017-09-10T00:30:15.028Z,99726.81
2017-09-10T00:35:16.978Z,99733.00
2017-09-10T00:40:18.946Z,99739.72
2017-09-10T00:45:20.902Z,99739.33
2017-09-10T00:50:22.945Z,99750.36
2017-09-10T00:55:24.896Z,99740.53
2017-09-10T01:00:26.884Z,99750.14
2017-09-10T01:05:28.882Z,99758.73
2017-09-10T01:10:30.916Z,99754.45
2017-09-10T01:15:32.981Z,99756.86
2017-09-10T01:20:35.071Z,99762.45
2017-09-10T01:25:37.110Z,99766.02
2017-09-10T01:30:39.540Z,99760.55
2017-09-10T01:35:41.944Z,99765.78
2017-09-10T01:40:44.776Z,99762.95
2017-09-10T01:45:46.978Z,99770.75
2017-09-10T01:50:48.966Z,99767.95
2017-09-10T01:55:50.926Z,99775.18
2017-09-10T02:00:53.338Z,99779.22
2017-09-10T02:05:55.314Z,99778.16
2017-09-10T02:10:57.289Z,99789.73
2017-09-10T02:15:59.303Z,99792.67
2017-09-10T02:21:01.330Z,99800.82
2017-09-10T02:26:03.302Z,99796.61
2017-09-10T02:31:05.327Z,99790.22
2017-09-10T02:36:07.307Z,99796.89
2017-09-10T02:41:19.188Z,99805.14
2017-09-10T02:46:21.218Z,99798.57
2017-09-10T02:51:23.164Z,99804.95
2017-09-10T02:56:31.438Z,99808.50
2017-09-10T03:01:39.695Z,99817.13
2017-09-10T03:06:48.663Z,99822.23
2017-09-10T03:11:52.164Z,99828.05
2017-09-10T03:16:55.911Z,99829.67
2017-09-10T03:22:03.515Z,99832.66
2017-09-10T03:27:09.165Z,99834.98
2017-09-10T03:32:13.282Z,99837.59
2017-09-10T03:37:15.895Z,99835.80
2017-09-10T03:42:24.041Z,99825.50
2017-09-10T03:47:27.108Z,99831.42
2017-09-10T03:52:29.691Z,99836.69
2017-09-10T03:57:33.373Z,99841.43
2017-09-10T04:02:36.461Z,99842.52
2017-09-10T04:07:39.824Z,99865.59
2017-09-10T04:12:42.957Z,99868.16
2017-09-10T04:17:46.287Z,99865.05
2017-09-10T04:22:49.066Z,99865.14
2017-09-10T04:27:52.101Z,99864.25
2017-09-10T04:32:54.938Z,99866.84
2017-09-10T04:37:57.780Z,99856.58
2017-09-10T04:43:00.228Z,99869.88
2017-09-10T04:48:03.426Z,99874.67
2017-09-10T04:53:06.388Z,99868.95
2017-09-10T04:58:13.808Z,99878.80
2017-09-10T05:03:19.785Z,99880.30
2017-09-10T05:08:26.898Z,99884.45
2017-09-10T05:13:30.817Z,99884.72
2017-09-10T05:18:34.771Z,99888.14
2017-09-10T05:23:43.349Z,99897.52
2017-09-10T05:28:48.237Z,99905.84
2017-09-10T05:33:55.395Z,99907.85
2017-09-10T05:38:59.257Z,99917.20
2017-09-10T05:44:06.141Z,99925.42
2017-09-10T05:49:12.950Z,99925.95
2017-09-10T05:54:17.381Z,99930.89
2017-09-10T05:59:26.730Z,99939.72
2017-09-10T06:04:31.824Z,99945.48
2017-09-10T06:09:39.951Z,99959.34
2017-09-10T06:14:44.227Z,99963.81
2017-09-10T06:19:51.947Z,99960.11
2017-09-10T06:24:55.109Z,99958.13
2017-09-10T06:30:04.200Z,99964.31
2017-09-10T06:35:12.708Z,99951.04
2017-09-10T06:40:18.006Z,99948.56
2017-09-10T06:45:21.069Z,99952.12
2017-09-10T06:50:23.832Z,99938.48
2017-09-10T06:55:26.693Z,99953.03
2017-09-10T07:00:29.123Z,99956.25
2017-09-10T07:05:31.701Z,99970.41
2017-09-10T07:10:34.299Z,99962.84
2017-09-10T07:15:37.078Z,99970.72
2017-09-10T07:20:39.530Z,99970.03
2017-09-10T07:25:42.896Z,99970.16
2017-09-10T07:30:45.425Z,99972.15
2017-09-10T07:35:47.748Z,99964.42
2017-09-10T07:40:49.742Z,99977.49
2017-09-10T07:45:51.708Z,99987.57
2017-09-10T07:50:53.682Z,99989.77
2017-09-10T07:55:55.677Z,99978.40
2017-09-10T08:00:57.650Z,99978.05
2017-09-10T08:05:59.860Z,99987.20
2017-09-10T08:11:01.818Z,99988.16
2017-09-10T08:16:04.366Z,99991.05
2017-09-10T08:21:06.308Z,99985.80
2017-09-10T08:26:08.418Z,99987.39
2017-09-10T08:31:10.432Z,99986.11
2017-09-10T08:36:12.407Z,99988.82
2017-09-10T08:41:14.406Z,99993.34
2017-09-10T08:46:16.378Z,99996.18
2017-09-10T08:51:18.325Z,99993.84
2017-09-10T08:56:20.523Z,99985.63
2017-09-10T09:01:22.481Z,99994.63
2017-09-10T09:06:24.421Z,99993.72
2017-09-10T09:11:26.366Z,99985.87
2017-09-10T09:16:28.457Z,99991.41
2017-09-10T09:21:30.484Z,99992.25
2017-09-10T09:26:40.076Z,99991.73
2017-09-10T09:31:44.026Z,99990.73
2017-09-10T09:36:46.235Z,99996.28
2017-09-10T09:41:48.335Z,99996.67
2017-09-10T09:46:53.352Z,99987.75
2017-09-10T09:51:55.595Z,99994.24
2017-09-10T09:56:58.021Z,99995.19
2017-09-10T10:02:00.371Z,99991.06
2017-09-10T10:07:02.777Z,99984.28
2017-09-10T10:12:04.736Z,99982.09
2017-09-10T10:17:06.708Z,99981.64
2017-09-10T10:22:08.813Z,99984.22
2017-09-10T10:27:12.490Z,99984.52
2017-09-10T10:32:20.596Z,99967.73
2017-09-10T10:37:23.655Z,99976.81
2017-09-10T10:42:26.839Z,99967.55
2017-09-10T10:47:30.675Z,99973.39
2017-09-10T10:52:33.634Z,99964.86
2017-09-10T10:57:36.666Z,99964.52
2017-09-10T11:02:39.253Z,99972.17
2017-09-10T11:07:48.117Z,99947.27
2017-09-10T11:12:50.912Z,99964.52
2017-09-10T11:17:53.409Z,99948.25
2017-09-10T11:23:00.440Z,99953.03
2017-09-10T11:28:03.100Z,99951.25
2017-09-10T11:33:06.574Z,99950.05
2017-09-10T11:38:09.016Z,99950.48
2017-09-10T11:43:12.965Z,99933.68
2017-09-10T11:48:15.346Z,99943.81
2017-09-10T11:53:17.755Z,99933.34
2017-09-10T11:58:19.977Z,99936.08
2017-09-10T12:03:22.297Z,99944.81
2017-09-10T12:08:29.621Z,99945.78
2017-09-10T12:13:33.418Z,99935.27
2017-09-10T12:18:35.988Z,99943.84
2017-09-10T12:23:38.401Z,99933.09
2017-09-10T12:28:43.625Z,99918.84
2017-09-10T12:33:46.177Z,99912.28
2017-09-10T12:38:48.691Z,99909.26
2017-09-10T12:43:51.035Z,99907.03
2017-09-10T12:48:53.465Z,99903.95
2017-09-10T12:53:55.969Z,99885.67
2017-09-10T12:59:00.531Z,99900.48
2017-09-10T13:04:03.180Z,99881.97
2017-09-10T13:09:05.332Z,99871.37
2017-09-10T13:14:07.627Z,99875.70
2017-09-10T13:19:09.612Z,99863.13
2017-09-10T13:24:11.627Z,99856.11
2017-09-10T13:29:13.598Z,99844.73
2017-09-10T13:34:15.935Z,99852.17
2017-09-10T13:39:17.916Z,99843.73
2017-09-10T13:44:19.907Z,99838.45
2017-09-10T13:49:21.841Z,99830.19
2017-09-10T13:54:23.864Z,99832.82
2017-09-10T13:59:26.109Z,99826.24
2017-09-10T14:04:28.039Z,99825.48
2017-09-10T14:09:30.046Z,99823.36
2017-09-10T14:14:32.014Z,99825.89
2017-09-10T14:19:33.985Z,99810.08
2017-09-10T14:24:35.967Z,99816.84
2017-09-10T14:29:37.953Z,99823.79
2017-09-10T14:34:39.975Z,99815.84
2017-09-10T14:39:42.014Z,99811.28
2017-09-10T14:44:44.445Z,99801.23
2017-09-10T14:49:46.431Z,99805.45
2017-09-10T14:54:48.430Z,99807.20
2017-09-10T14:59:51.514Z,99796.52
2017-09-10T15:04:53.464Z,99794.73
2017-09-10T15:09:55.477Z,99811.53
2017-09-10T15:14:57.506Z,99812.78
2017-09-10T15:19:59.595Z,99808.19
2017-09-10T15:25:01.554Z,99798.36
2017-09-10T15:30:04.081Z,99803.97
2017-09-10T15:35:06.100Z,99803.87
2017-09-10T15:40:08.108Z,99805.77
2017-09-10T15:45:10.109Z,99810.89
2017-09-10T15:50:12.053Z,99800.06
2017-09-10T15:55:15.440Z,99803.70
2017-09-10T16:00:18.051Z,99797.05
2017-09-10T16:05:20.476Z,99795.47
2017-09-10T16:10:23.487Z,99790.63
2017-09-10T16:15:25.415Z,99790.38
2017-09-10T16:20:27.363Z,99781.54
2017-09-10T16:25:29.349Z,99785.91
2017-09-10T16:30:31.358Z,99791.62
2017-09-10T16:35:33.628Z,99780.23
2017-09-10T16:40:35.622Z,99765.95
2017-09-10T16:45:37.611Z,99743.27
2017-09-10T16:50:39.910Z,99738.45
2017-09-10T16:55:42.237Z,99743.92
2017-09-10T17:00:44.305Z,99737.66
2017-09-10T17:05:47.695Z,99732.08
2017-09-10T17:10:49.650Z,99730.38
2017-09-10T17:15:51.679Z,99720.99
2017-09-10T17:20:53.725Z,99724.09
2017-09-10T17:25:55.704Z,99725.30
2017-09-10T17:30:59.505Z,99721.45
2017-09-10T17:36:10.082Z,99710.96
2017-09-10T17:41:12.658Z,99720.63
2017-09-10T17:46:15.038Z,99719.75
2017-09-10T17:51:17.787Z,99725.85
2017-09-10T17:56:22.027Z,99718.60
2017-09-10T18:01:24.378Z,99718.63
2017-09-10T18:06:33.402Z,99719.85
2017-09-10T18:11:40.542Z,99706.66
2017-09-10T18:16:42.928Z,99710.97
2017-09-10T18:21:45.315Z,99706.53
2017-09-10T18:26:48.662Z,99697.77
2017-09-10T18:31:51.889Z,99696.06
2017-09-10T18:36:55.336Z,99703.60
2017-09-10T18:41:58.146Z,99706.37
2017-09-10T18:47:00.163Z,99699.94
2017-09-10T18:52:02.238Z,99704.59
2017-09-10T18:57:04.285Z,99695.99
2017-09-10T19:02:06.289Z,99692.72
2017-09-10T19:07:08.296Z,99686.64
2017-09-10T19:12:10.324Z,99686.69
2017-09-10T19:17:12.320Z,99677.14
2017-09-10T19:22:14.321Z,99677.20
2017-09-10T19:27:16.594Z,99673.23
2017-09-10T19:32:20.917Z,99662.30
2017-09-10T19:37:24.371Z,99669.34
2017-09-10T19:42:28.351Z,99657.73
2017-09-10T19:47:31.382Z,99652.61
2017-09-10T19:52:35.706Z,99644.63
2017-09-10T19:57:37.895Z,99639.47
2017-09-10T20:02:40.171Z,99633.91
2017-09-10T20:07:57.450Z,99622.73
2017-09-10T20:13:00.653Z,99610.95
2017-09-10T20:18:03.419Z,99613.12
2017-09-10T20:23:06.536Z,99606.34
2017-09-10T20:28:09.830Z,99595.88
2017-09-10T20:33:13.621Z,99588.41
2017-09-10T20:38:16.769Z,99579.16
2017-09-10T20:43:20.059Z,99576.28
2017-09-10T20:48:23.047Z,99560.42
2017-09-10T20:53:26.418Z,99552.03
2017-09-10T20:58:31.675Z,99539.56
2017-09-10T21:03:35.417Z,99538.49
2017-09-10T21:08:38.319Z,99537.41
2017-09-10T21:13:40.918Z,99524.95
2017-09-10T21:23:51.969Z,99517.92
2017-09-10T21:28:54.611Z,99513.23
2017-09-10T21:33:56.983Z,99509.91
2017-09-10T21:38:59.535Z,99501.56
2017-09-10T21:44:03.579Z,99504.75
2017-09-10T21:49:05.621Z,99502.36
2017-09-10T21:54:07.599Z,99490.92
2017-09-10T21:59:09.859Z,99486.81
2017-09-10T22:04:11.928Z,99482.35
2017-09-10T22:09:13.919Z,99469.13
2017-09-10T22:14:15.908Z,99487.43
2017-09-10T22:19:17.939Z,99475.78
2017-09-10T22:24:20.046Z,99466.91
2017-09-10T22:29:22.126Z,99459.02
2017-09-10T22:34:24.346Z,99461.38
2017-09-10T22:39:26.291Z,99436.55
2017-09-10T22:44:28.246Z,99438.81
2017-09-10T22:49:30.222Z,99451.52
2017-09-10T22:54:32.499Z,99446.48
2017-09-10T22:59:34.674Z,99436.04
2017-09-10T23:04:36.775Z,99432.80
2017-09-10T23:09:38.794Z,99418.13
2017-09-10T23:14:41.105Z,99416.39
2017-09-10T23:19:43.268Z,99412.72
2017-09-10T23:24:45.401Z,99407.39
2017-09-10T23:29:47.477Z,99399.55
2017-09-10T23:34:49.581Z,99395.12
2017-09-10T23:39:51.566Z,99392.22
2017-09-10T23:44:53.831Z,99385.78
2017-09-10T23:49:55.847Z,99330.60
2017-09-10T23:54:57.934Z,99365.35
2017-09-10T23:59:59.915Z,99359.95
